createdAt,value
2023-04-11T00:01:02.026Z,86.87
2023-04-11T00:03:29.172Z,87.08
2023-04-11T00:05:56.453Z,86.97
2023-04-11T00:08:23.421Z,87.03
2023-04-11T00:10:50.512Z,87.34
2023-04-11T00:13:19.866Z,88.15
2023-04-11T00:15:47.757Z,88.14
2023-04-11T00:18:15.025Z,86.68
2023-04-11T00:20:42.025Z,85.66
2023-04-11T00:23:09.067Z,86.79
2023-04-11T00:25:37.360Z,87.71
2023-04-11T00:28:04.699Z,87.80
2023-04-11T00:30:31.720Z,87.47
2023-04-11T00:32:58.755Z,87.45
2023-04-11T00:35:25.965Z,87.51
2023-04-11T00:37:56.163Z,87.64
2023-04-11T00:40:23.335Z,87.91
2023-04-11T00:42:50.500Z,88.09
2023-04-11T00:45:17.516Z,88.50
2023-04-11T00:47:44.723Z,88.41
2023-04-11T00:50:14.167Z,87.85
2023-04-11T00:52:42.814Z,88.31
2023-04-11T00:55:10.818Z,88.99
2023-04-11T00:57:38.524Z,88.62
2023-04-11T01:00:10.221Z,89.19
2023-04-11T01:02:45.174Z,89.17
2023-04-11T01:05:14.874Z,89.11
2023-04-11T01:07:46.984Z,89.65
2023-04-11T01:10:15.800Z,89.36
2023-04-11T01:12:46.055Z,89.18
2023-04-11T01:15:13.069Z,89.35
2023-04-11T01:17:41.829Z,89.90
2023-04-11T01:20:10.309Z,89.60
2023-04-11T01:22:38.671Z,89.28
2023-04-11T01:25:06.344Z,89.95
2023-04-11T01:27:34.213Z,91.10
2023-04-11T01:30:01.973Z,90.90
2023-04-11T01:32:29.000Z,90.18
2023-04-11T01:34:58.759Z,90.76
2023-04-11T01:37:25.902Z,91.56
2023-04-11T01:39:53.201Z,91.01
2023-04-11T01:42:21.942Z,91.30
2023-04-11T01:44:53.560Z,90.39
2023-04-11T01:47:20.635Z,90.89
2023-04-11T01:49:47.638Z,91.42
2023-04-11T01:52:14.591Z,91.44
2023-04-11T01:54:41.557Z,91.56
2023-04-11T01:57:08.568Z,90.99
2023-04-11T01:59:35.741Z,91.28
2023-04-11T02:02:02.952Z,91.67
2023-04-11T02:04:30.342Z,91.58
2023-04-11T02:06:57.366Z,92.53
2023-04-11T02:09:24.459Z,91.74
2023-04-11T02:11:51.457Z,92.06
2023-04-11T02:14:20.447Z,92.52
2023-04-11T02:16:56.146Z,92.27
2023-04-11T02:19:26.259Z,92.00
2023-04-11T02:21:53.444Z,91.79
2023-04-11T02:24:20.474Z,91.72
2023-04-11T02:26:47.510Z,90.95
2023-04-11T02:29:14.549Z,90.67
2023-04-11T02:31:41.558Z,90.65
2023-04-11T02:34:09.048Z,90.08
2023-04-11T02:36:36.601Z,90.31
2023-04-11T02:39:03.680Z,90.49
2023-04-11T02:41:30.854Z,90.25
2023-04-11T02:43:57.840Z,89.91
2023-04-11T02:46:25.049Z,89.52
2023-04-11T02:48:52.065Z,89.40
2023-04-11T02:51:19.024Z,89.28
2023-04-11T02:53:46.170Z,88.96
2023-04-11T02:56:18.754Z,88.86
2023-04-11T02:58:47.043Z,89.24
2023-04-11T03:01:17.260Z,89.25
2023-04-11T03:03:45.207Z,89.34
2023-04-11T03:06:12.328Z,89.48
2023-04-11T03:08:39.322Z,89.13
2023-04-11T03:11:06.676Z,88.87
2023-04-11T03:13:33.864Z,90.02
2023-04-11T03:16:00.937Z,90.29
2023-04-11T03:18:28.026Z,90.07
2023-04-11T03:20:56.145Z,90.55
2023-04-11T03:23:23.310Z,91.41
2023-04-11T03:25:50.995Z,91.38
2023-04-11T03:28:18.064Z,91.58
2023-04-11T03:30:46.547Z,90.95
2023-04-11T03:33:13.589Z,91.32
2023-04-11T03:35:40.667Z,91.30
2023-04-11T03:38:07.744Z,90.48
2023-04-11T03:40:35.050Z,90.62
2023-04-11T03:43:04.317Z,90.86
2023-04-11T03:45:31.809Z,90.72
2023-04-11T03:47:58.879Z,90.24
2023-04-11T03:50:26.089Z,90.45
2023-04-11T03:52:53.120Z,90.56
2023-04-11T03:55:20.518Z,90.28
2023-04-11T03:57:47.645Z,90.83
2023-04-11T04:00:14.914Z,90.18
2023-04-11T04:02:42.171Z,90.19
2023-04-11T04:05:09.589Z,90.70
2023-04-11T04:07:36.660Z,90.96
2023-04-11T04:10:04.985Z,90.67
2023-04-11T04:12:32.162Z,90.58
2023-04-11T04:14:59.231Z,90.62
2023-04-11T04:17:27.344Z,90.97
2023-04-11T04:19:54.361Z,85.88
2023-04-11T04:22:22.382Z,80.35
2023-04-11T04:24:49.397Z,76.45
2023-04-11T04:27:19.249Z,73.52
2023-04-11T04:29:48.418Z,68.97
2023-04-11T04:32:23.223Z,64.58
2023-04-11T04:34:55.299Z,62.73
2023-04-11T04:37:25.996Z,59.23
2023-04-11T04:40:02.237Z,58.14
2023-04-11T04:42:30.258Z,55.85
2023-04-11T04:44:57.602Z,53.87
2023-04-11T04:47:29.707Z,49.71
2023-04-11T04:49:57.554Z,47.21
2023-04-11T04:52:29.164Z,46.71
2023-04-11T04:54:58.099Z,44.84
2023-04-11T04:57:27.247Z,43.86
2023-04-11T04:59:56.127Z,42.87
2023-04-11T05:02:23.358Z,41.25
2023-04-11T05:04:50.549Z,37.01
2023-04-11T05:07:18.380Z,35.39
2023-04-11T05:09:45.444Z,35.19
2023-04-11T05:12:13.970Z,38.05
2023-04-11T05:14:41.161Z,38.16
2023-04-11T05:17:08.159Z,36.31
2023-04-11T05:19:35.466Z,37.90
2023-04-11T05:22:02.455Z,38.84
2023-04-11T05:24:29.485Z,34.19
2023-04-11T05:26:56.741Z,31.66
2023-04-11T05:29:23.791Z,31.28
2023-04-11T05:31:50.938Z,30.83
2023-04-11T05:34:17.922Z,31.65
2023-04-11T05:36:47.229Z,33.03
2023-04-11T05:39:14.251Z,30.63
2023-04-11T05:41:41.977Z,30.19
2023-04-11T05:44:09.011Z,29.66
2023-04-11T05:46:37.312Z,29.73
2023-04-11T05:49:04.427Z,30.19
2023-04-11T05:51:31.729Z,27.70
2023-04-11T05:53:58.995Z,25.22
2023-04-11T05:56:26.140Z,25.19
2023-04-11T05:58:53.090Z,24.21
2023-04-11T06:01:20.132Z,23.76
2023-04-11T06:03:48.083Z,25.04
2023-04-11T06:06:15.819Z,24.71
2023-04-11T06:08:43.088Z,23.59
2023-04-11T06:11:11.308Z,23.08
2023-04-11T06:13:38.359Z,24.22
2023-04-11T06:16:06.922Z,23.50
2023-04-11T06:18:34.100Z,23.90
2023-04-11T06:21:01.213Z,24.26
2023-04-11T06:23:28.257Z,23.12
2023-04-11T06:25:55.366Z,21.57
2023-04-11T06:28:22.381Z,21.73
2023-04-11T06:30:49.483Z,21.96
2023-04-11T06:33:16.533Z,21.54
2023-04-11T06:35:43.576Z,21.07
2023-04-11T06:38:10.654Z,21.98
2023-04-11T06:40:37.672Z,20.66
2023-04-11T06:43:04.741Z,20.30
2023-04-11T06:45:31.799Z,20.42
2023-04-11T06:47:58.846Z,18.95
2023-04-11T06:50:26.076Z,19.80
2023-04-11T06:52:53.046Z,19.15
2023-04-11T06:55:21.101Z,19.06
2023-04-11T06:57:48.044Z,18.82
2023-04-11T07:00:16.339Z,18.78
2023-04-11T07:02:44.798Z,20.05
2023-04-11T07:05:12.251Z,20.13
2023-04-11T07:07:39.768Z,20.67
2023-04-11T07:10:07.797Z,20.98
2023-04-11T07:12:34.811Z,21.03
2023-04-11T07:15:03.824Z,21.77
2023-04-11T07:17:31.610Z,21.35
2023-04-11T07:19:58.612Z,22.56
2023-04-11T07:22:25.807Z,21.43
2023-04-11T07:24:55.338Z,22.08
2023-04-11T07:27:23.470Z,23.72
2023-04-11T07:29:50.741Z,23.24
2023-04-11T07:32:17.938Z,22.80
2023-04-11T07:34:44.946Z,22.06
2023-04-11T07:37:12.567Z,22.39
2023-04-11T07:39:40.774Z,22.12
2023-04-11T07:42:08.133Z,22.62
2023-04-11T07:44:35.358Z,24.48
2023-04-11T07:47:02.359Z,24.42
2023-04-11T07:49:29.646Z,24.96
2023-04-11T07:51:56.640Z,25.07
2023-04-11T07:54:25.321Z,24.95
2023-04-11T07:56:52.431Z,27.18
2023-04-11T07:59:19.429Z,27.55
2023-04-11T08:01:46.581Z,27.66
2023-04-11T08:04:14.309Z,27.51
2023-04-11T08:06:41.552Z,27.32
2023-04-11T08:09:08.547Z,27.70
2023-04-11T08:11:35.641Z,26.61
2023-04-11T08:14:03.270Z,27.13
2023-04-11T08:16:30.311Z,25.46
2023-04-11T08:18:59.253Z,26.23
2023-04-11T08:21:26.755Z,27.90
2023-04-11T08:23:53.859Z,29.07
2023-04-11T08:26:21.271Z,30.45
2023-04-11T08:28:48.360Z,32.87
2023-04-11T08:31:15.586Z,33.75
2023-04-11T08:33:42.787Z,34.87
2023-04-11T08:36:11.123Z,34.15
2023-04-11T08:38:39.645Z,34.68
2023-04-11T08:41:06.991Z,36.60
2023-04-11T08:43:38.993Z,37.99
2023-04-11T08:46:12.065Z,39.02
2023-04-11T08:48:39.472Z,37.59
2023-04-11T08:51:06.941Z,36.98
2023-04-11T08:53:37.984Z,36.27
2023-04-11T08:56:05.224Z,34.99
2023-04-11T08:58:32.349Z,35.10
2023-04-11T09:01:29.939Z,36.08
2023-04-11T09:03:59.396Z,35.05
2023-04-11T09:06:32.736Z,36.43
2023-04-11T09:09:02.416Z,36.56
2023-04-11T09:11:29.493Z,36.35
2023-04-11T09:14:10.754Z,37.66
2023-04-11T09:16:53.029Z,37.66
2023-04-11T09:19:29.270Z,37.76
2023-04-11T09:22:04.165Z,39.03
2023-04-11T09:24:33.386Z,38.32
2023-04-11T09:27:16.950Z,38.23
2023-04-11T09:29:48.944Z,37.78
2023-04-11T09:32:34.164Z,37.24
2023-04-11T09:35:12.775Z,36.70
2023-04-11T09:37:56.030Z,35.67
2023-04-11T09:40:26.347Z,34.26
2023-04-11T09:43:04.264Z,34.16
2023-04-11T09:45:38.247Z,34.03
2023-04-11T09:48:09.018Z,33.37
2023-04-11T09:50:38.575Z,33.15
2023-04-11T09:53:06.967Z,33.54
2023-04-11T09:55:33.954Z,34.08
2023-04-11T09:58:01.409Z,33.41
2023-04-11T10:00:30.281Z,32.43
2023-04-11T10:02:57.528Z,34.08
2023-04-11T10:05:30.456Z,34.52
2023-04-11T10:08:14.640Z,34.84
2023-04-11T10:10:44.126Z,34.68
2023-04-11T10:13:41.217Z,35.45
2023-04-11T10:16:16.543Z,35.24
2023-04-11T10:18:55.214Z,36.80
2023-04-11T10:21:42.858Z,36.66
2023-04-11T10:24:18.063Z,37.36
2023-04-11T10:26:53.644Z,37.74
2023-04-11T10:29:40.539Z,38.49
2023-04-11T10:32:16.691Z,37.84
2023-04-11T10:34:52.470Z,38.20
2023-04-11T10:37:40.040Z,39.24
2023-04-11T10:40:11.447Z,39.51
2023-04-11T10:42:46.828Z,39.31
2023-04-11T10:45:30.460Z,40.04
2023-04-11T10:47:57.469Z,39.01
2023-04-11T10:50:27.235Z,38.91
2023-04-11T10:52:59.409Z,38.65
2023-04-11T10:55:29.435Z,37.03
2023-04-11T10:58:16.811Z,37.40
2023-04-11T11:00:49.829Z,37.55
2023-04-11T11:03:34.152Z,38.04
2023-04-11T11:06:09.437Z,39.21
2023-04-11T11:08:43.449Z,39.71
2023-04-11T11:11:11.746Z,39.76
2023-04-11T11:13:56.219Z,39.10
2023-04-11T11:16:26.513Z,38.47
2023-04-11T11:18:56.346Z,38.21
2023-04-11T11:21:28.163Z,37.00
2023-04-11T11:24:02.806Z,35.63
2023-04-11T11:26:36.749Z,35.57
2023-04-11T11:29:05.796Z,35.77
2023-04-11T11:31:42.659Z,35.15
2023-04-11T11:36:46.669Z,35.43
2023-04-11T11:39:14.302Z,35.65
2023-04-11T11:41:41.770Z,35.55
2023-04-11T11:44:23.949Z,35.15
2023-04-11T11:47:17.990Z,35.34
2023-04-11T11:49:52.958Z,35.55
2023-04-11T11:52:40.571Z,35.71
2023-04-11T11:55:19.521Z,34.33
2023-04-11T11:57:47.885Z,34.87
2023-04-11T12:00:23.477Z,35.46
2023-04-11T12:02:54.273Z,35.17
2023-04-11T12:05:24.071Z,35.50
2023-04-11T12:07:54.981Z,35.24
2023-04-11T12:10:22.018Z,36.13
2023-04-11T12:12:53.334Z,37.80
2023-04-11T12:15:24.160Z,38.62
2023-04-11T12:17:53.798Z,38.35
2023-04-11T12:20:26.416Z,38.59
2023-04-11T12:22:55.056Z,38.72
2023-04-11T12:25:23.088Z,38.63
2023-04-11T12:27:50.248Z,39.05
2023-04-11T12:30:17.347Z,38.60
2023-04-11T12:32:45.832Z,38.78
2023-04-11T12:35:13.662Z,38.84
2023-04-11T12:37:41.263Z,39.09
2023-04-11T12:40:11.270Z,38.73
2023-04-11T12:42:53.289Z,38.80
2023-04-11T12:45:23.149Z,38.39
2023-04-11T12:47:50.281Z,38.52
2023-04-11T12:50:17.429Z,38.82
2023-04-11T12:52:44.772Z,38.73
2023-04-11T12:55:13.607Z,38.55
2023-04-11T12:57:41.583Z,39.29
2023-04-11T13:00:11.588Z,39.84
2023-04-11T13:02:44.019Z,39.64
2023-04-11T13:05:16.498Z,40.02
2023-04-11T13:07:45.056Z,40.25
2023-04-11T13:10:14.116Z,40.41
2023-04-11T13:12:44.497Z,40.06
2023-04-11T13:15:13.872Z,39.95
2023-04-11T13:17:41.069Z,40.12
2023-04-11T13:20:10.680Z,40.32
2023-04-11T13:22:44.774Z,40.21
2023-04-11T13:25:12.493Z,41.14
2023-04-11T13:27:41.607Z,41.02
2023-04-11T13:30:10.650Z,41.08
2023-04-11T13:32:37.833Z,40.95
2023-04-11T13:35:05.905Z,40.98
2023-04-11T13:37:33.177Z,41.08
2023-04-11T13:40:00.581Z,41.52
2023-04-11T13:42:27.570Z,41.50
2023-04-11T13:44:54.665Z,41.57
2023-04-11T13:47:21.742Z,41.60
2023-04-11T13:49:48.750Z,41.41
2023-04-11T13:52:15.763Z,40.46
2023-04-11T13:54:42.815Z,41.00
2023-04-11T13:57:09.875Z,40.70
2023-04-11T13:59:36.940Z,40.58
2023-04-11T14:02:04.171Z,41.28
2023-04-11T14:04:31.524Z,41.31
2023-04-11T14:06:58.578Z,40.65
2023-04-11T14:09:25.616Z,40.60
2023-04-11T14:11:52.721Z,40.48
2023-04-11T14:14:19.842Z,40.68
2023-04-11T14:16:46.988Z,40.31
2023-04-11T14:19:14.878Z,40.56
2023-04-11T14:21:42.089Z,40.47
2023-04-11T14:24:09.706Z,40.15
2023-04-11T14:26:37.241Z,40.31
2023-04-11T14:29:04.795Z,40.08
2023-04-11T14:31:32.153Z,39.86
2023-04-11T14:33:59.475Z,39.58
2023-04-11T14:36:27.998Z,39.78
2023-04-11T14:38:55.358Z,39.85
2023-04-11T14:41:22.489Z,39.99
2023-04-11T14:43:49.535Z,40.36
2023-04-11T14:46:16.727Z,40.30
2023-04-11T14:48:43.808Z,40.40
2023-04-11T14:51:10.803Z,40.39
2023-04-11T14:53:37.998Z,40.20
2023-04-11T14:56:06.589Z,41.04
2023-04-11T14:58:34.172Z,40.99
2023-04-11T15:01:01.400Z,41.28
2023-04-11T15:03:28.638Z,41.11
2023-04-11T15:05:56.010Z,40.99
2023-04-11T15:08:23.050Z,40.67
2023-04-11T15:10:54.121Z,40.48
2023-04-11T15:13:22.974Z,40.66
2023-04-11T15:15:50.103Z,40.50
2023-04-11T15:18:26.938Z,40.15
2023-04-11T15:20:58.823Z,40.28
2023-04-11T15:23:26.619Z,40.48
2023-04-11T15:25:58.512Z,40.23
2023-04-11T15:28:27.247Z,41.00
2023-04-11T15:30:55.487Z,40.94
2023-04-11T15:33:23.987Z,40.65
2023-04-11T15:35:53.708Z,40.72
2023-04-11T15:38:21.884Z,40.65
2023-04-11T15:40:54.490Z,40.76
2023-04-11T15:43:23.289Z,40.45
2023-04-11T15:45:52.309Z,41.11
2023-04-11T15:48:19.434Z,41.25
2023-04-11T15:50:46.605Z,40.92
2023-04-11T15:53:13.914Z,40.99
2023-04-11T15:55:42.965Z,40.95
2023-04-11T15:58:10.411Z,41.35
2023-04-11T16:00:39.041Z,41.34
2023-04-11T16:03:08.501Z,41.32
2023-04-11T16:05:38.318Z,41.37
2023-04-11T16:08:06.532Z,41.57
2023-04-11T16:10:33.984Z,41.81
2023-04-11T16:13:02.609Z,42.00
2023-04-11T16:15:29.681Z,41.96
2023-04-11T16:17:56.742Z,42.38
2023-04-11T16:20:23.770Z,42.54
2023-04-11T16:22:50.771Z,42.58
2023-04-11T16:25:21.020Z,42.95
2023-04-11T16:27:49.978Z,42.99
2023-04-11T16:30:17.335Z,43.45
2023-04-11T16:32:44.553Z,43.79
2023-04-11T16:35:12.023Z,43.53
2023-04-11T16:37:39.006Z,44.42
2023-04-11T16:40:12.073Z,44.82
2023-04-11T16:42:39.839Z,45.00
2023-04-11T16:45:08.945Z,44.95
2023-04-11T16:47:36.304Z,45.17
2023-04-11T16:50:05.353Z,45.21
2023-04-11T16:52:32.783Z,45.70
2023-04-11T16:54:59.762Z,45.92
2023-04-11T16:57:27.567Z,45.85
2023-04-11T16:59:54.706Z,46.19
2023-04-11T17:02:21.951Z,46.32
2023-04-11T17:04:49.063Z,46.90
2023-04-11T17:07:16.319Z,47.60
2023-04-11T17:09:43.390Z,47.63
2023-04-11T17:12:10.582Z,47.78
2023-04-11T17:14:37.581Z,47.82
2023-04-11T17:17:04.601Z,47.93
2023-04-11T17:19:31.718Z,48.04
2023-04-11T17:21:58.789Z,48.30
2023-04-11T17:24:25.942Z,48.45
2023-04-11T17:26:53.365Z,48.76
2023-04-11T17:29:20.357Z,48.76
2023-04-11T17:31:47.957Z,48.73
2023-04-11T17:34:15.046Z,49.03
2023-04-11T17:36:43.039Z,49.12
2023-04-11T17:39:17.089Z,48.82
2023-04-11T17:41:45.690Z,49.44
2023-04-11T17:44:13.655Z,49.49
2023-04-11T17:46:41.226Z,50.04
2023-04-11T17:49:08.321Z,50.24
2023-04-11T17:51:38.928Z,50.95
2023-04-11T17:55:23.254Z,50.96
2023-04-11T17:57:51.291Z,51.49
2023-04-11T18:00:24.129Z,52.04
2023-04-11T18:02:54.921Z,52.33
2023-04-11T18:05:25.858Z,52.55
2023-04-11T18:07:58.126Z,52.18
2023-04-11T18:10:27.427Z,53.19
2023-04-11T18:12:56.565Z,53.44
2023-04-11T18:15:24.841Z,53.09
2023-04-11T18:17:52.837Z,52.75
2023-04-11T18:20:20.155Z,53.56
2023-04-11T18:22:51.756Z,53.00
2023-04-11T18:25:18.780Z,53.78
2023-04-11T18:27:47.101Z,53.43
2023-04-11T18:30:15.976Z,53.82
2023-04-11T18:32:49.390Z,54.17
2023-04-11T18:35:17.436Z,54.34
2023-04-11T18:37:44.741Z,53.96
2023-04-11T18:40:14.177Z,55.07
2023-04-11T18:42:49.371Z,54.92
2023-04-11T18:45:20.501Z,55.06
2023-04-11T18:47:47.853Z,55.55
2023-04-11T18:50:15.851Z,56.47
2023-04-11T18:52:44.923Z,56.47
2023-04-11T18:55:12.492Z,55.92
2023-04-11T18:57:39.877Z,56.39
2023-04-11T19:00:18.077Z,57.11
2023-04-11T19:02:46.883Z,56.86
2023-04-11T19:05:14.709Z,57.38
2023-04-11T19:07:43.515Z,57.46
2023-04-11T19:10:13.303Z,57.84
2023-04-11T19:12:41.119Z,57.86
2023-04-11T19:15:09.385Z,57.94
2023-04-11T19:17:38.489Z,58.33
2023-04-11T19:20:13.416Z,58.83
2023-04-11T19:22:41.032Z,58.33
2023-04-11T19:25:12.416Z,58.80
2023-04-11T19:27:41.988Z,58.57
2023-04-11T19:30:11.549Z,58.85
2023-04-11T19:32:41.071Z,59.17
2023-04-11T19:35:10.884Z,58.72
2023-04-11T19:37:38.084Z,59.36
2023-04-11T19:40:07.400Z,59.12
2023-04-11T19:42:37.182Z,59.66
2023-04-11T19:45:05.192Z,59.84
2023-04-11T19:47:32.888Z,59.33
2023-04-11T19:50:01.060Z,59.31
2023-04-11T19:52:28.905Z,59.92
2023-04-11T19:54:56.595Z,60.38
2023-04-11T19:57:26.534Z,60.47
2023-04-11T19:59:53.626Z,60.92
2023-04-11T20:02:21.189Z,60.70
2023-04-11T20:04:49.457Z,61.22
2023-04-11T20:07:16.740Z,61.74
2023-04-11T20:09:43.839Z,62.13
2023-04-11T20:12:11.195Z,62.30
2023-04-11T20:14:38.347Z,62.09
2023-04-11T20:17:06.638Z,63.07
2023-04-11T20:19:37.709Z,62.78
2023-04-11T20:22:05.038Z,62.63
2023-04-11T20:24:32.097Z,62.31
2023-04-11T20:26:59.150Z,62.44
2023-04-11T20:29:32.905Z,62.91
2023-04-11T20:32:00.234Z,63.14
2023-04-11T20:34:27.290Z,63.17
2023-04-11T20:36:54.310Z,63.21
2023-04-11T20:39:22.053Z,63.74
2023-04-11T20:41:49.998Z,63.92
2023-04-11T20:44:23.607Z,63.70
2023-04-11T20:46:51.357Z,63.40
2023-04-11T20:49:18.394Z,62.85
2023-04-11T20:51:49.772Z,63.30
2023-04-11T20:54:16.760Z,62.42
2023-04-11T20:56:44.153Z,63.07
2023-04-11T20:59:12.452Z,62.76
2023-04-11T21:01:40.593Z,63.15
2023-04-11T21:04:09.665Z,63.78
2023-04-11T21:06:37.054Z,63.59
2023-04-11T21:09:05.363Z,63.73
2023-04-11T21:11:33.244Z,63.93
2023-04-11T21:14:00.509Z,63.42
2023-04-11T21:16:27.533Z,64.05
2023-04-11T21:18:54.565Z,63.77
2023-04-11T21:21:21.545Z,63.68
2023-04-11T21:23:48.662Z,63.46
2023-04-11T21:26:15.707Z,63.78
2023-04-11T21:28:42.663Z,64.44
2023-04-11T21:31:09.790Z,64.71
2023-04-11T21:33:36.796Z,64.61
2023-04-11T21:36:04.014Z,64.67
2023-04-11T21:38:31.112Z,64.77
2023-04-11T21:40:58.156Z,65.21
2023-04-11T21:43:25.335Z,65.58
2023-04-11T21:45:52.329Z,65.64
2023-04-11T21:48:19.563Z,66.01
2023-04-11T21:50:46.626Z,65.97
2023-04-11T21:53:14.140Z,66.94
2023-04-11T21:55:47.488Z,67.69
2023-04-11T21:58:27.939Z,69.43
2023-04-11T22:00:56.488Z,70.02
2023-04-11T22:03:24.186Z,70.59
2023-04-11T22:05:52.431Z,70.79
2023-04-11T22:08:22.356Z,71.76
2023-04-11T22:10:50.879Z,72.23
2023-04-11T22:13:19.432Z,72.18
2023-04-11T22:15:48.777Z,72.89
2023-04-11T22:18:15.934Z,73.67
2023-04-11T22:20:44.230Z,74.16
2023-04-11T22:23:13.078Z,74.08
2023-04-11T22:25:44.284Z,74.71
2023-04-11T22:28:18.413Z,75.39
2023-04-11T22:30:46.642Z,75.84
2023-04-11T22:33:14.032Z,75.29
2023-04-11T22:35:44.807Z,75.08
2023-04-11T22:38:12.142Z,75.93
2023-04-11T22:40:40.202Z,75.09
2023-04-11T22:43:07.387Z,75.73
2023-04-11T22:45:36.003Z,75.48
2023-04-11T22:48:04.636Z,75.30
2023-04-11T22:50:32.832Z,76.06
2023-04-11T22:53:02.554Z,76.93
2023-04-11T22:55:34.387Z,77.15
2023-04-11T22:58:02.867Z,77.97
2023-04-11T23:00:30.425Z,78.37
2023-04-11T23:02:59.793Z,79.88
2023-04-11T23:05:27.055Z,79.47
2023-04-11T23:07:54.193Z,81.00
2023-04-11T23:10:21.168Z,81.55
2023-04-11T23:12:49.424Z,80.76
2023-04-11T23:15:17.462Z,81.69
2023-04-11T23:17:44.980Z,82.63
2023-04-11T23:20:13.182Z,83.54
2023-04-11T23:22:42.480Z,83.45
2023-04-11T23:25:11.658Z,83.84
2023-04-11T23:27:39.626Z,84.61
2023-04-11T23:30:07.786Z,84.53
2023-04-11T23:32:35.106Z,85.06
2023-04-11T23:35:03.062Z,86.67
2023-04-11T23:37:32.015Z,86.52
2023-04-11T23:39:59.679Z,86.92
2023-04-11T23:42:26.827Z,86.79
2023-04-11T23:44:53.883Z,86.58
2023-04-11T23:47:20.928Z,86.79
2023-04-11T23:49:47.893Z,87.27
2023-04-11T23:52:14.956Z,87.33
2023-04-11T23:54:41.913Z,87.80
2023-04-11T23:57:08.908Z,88.13
2023-04-11T23:59:36.400Z,88.10
